Terminal Aerodrome Forecast
Issued by NWS

Home | Current Version | Previous Version | Graphics & Text | Print | Product List | Glossary Off
Versions: 1 2 3 4 5 6 7 8 9 10 11 12 13 14 15 16 17 18 19 20 21 22 23 24 25 26 27 28 29 30 31 32 33 34 35 36 37 38 39

212
FTUS43 KDDC 151340 AAB
TAFGCK
TAF AMD
KGCK 151340Z 1514/1612 36008KT P6SM SKC
     FM151500 03010G20KT P6SM SKC
     FM152100 VRB05KT P6SM OVC200
     FM160300 15010KT P6SM SCT200
     FM160900 16012KT P6SM SKC=

USA.gov is the U.S. government's official web portal to all federal, state and local government web resources and services.